Time,TemperatureF,DewpointF,PressureIn,WindDirection,WindDirectionDegrees,WindSpeedMPH,WindSpeedGustMPH,Humidity,HourlyPrecipIn,Conditions,Clouds,dailyrainin,SoftwareType,DateUTC
2013-04-13 00:00:00,66.8,51.5,29.74,WNW,294,2.3,0.0,58,0.00,CLR,,0.48,WeatherDisplay:10.37,2013-04-13 04:00:00,
2013-04-13 00:05:00,66.4,50.7,29.74,North,357,0.0,0.0,57,0.00,RA,,0.00,WeatherDisplay:10.37,2013-04-13 04:05:00,
2013-04-13 00:10:00,66.2,50.0,29.75,NW,323,2.3,2.3,56,0.00,CLR,,0.00,WeatherDisplay:10.37,2013-04-13 04:10:00,
2013-04-13 00:15:00,66.0,50.3,29.75,NW,307,1.1,1.1,57,0.00,CLR,,0.00,WeatherDisplay:10.37,2013-04-13 04:15:00,
2013-04-13 00:20:00,65.9,49.3,29.75,WSW,255,2.3,2.3,55,0.00,CLR,,0.00,WeatherDisplay:10.37,2013-04-13 04:20:00,
2013-04-13 00:25:00,65.9,48.8,29.75,WSW,248,1.1,0.0,54,0.00,CLR,,0.00,WeatherDisplay:10.37,2013-04-13 04:25:00,
2013-04-13 00:30:00,65.8,47.7,29.75,WSW,253,2.3,2.3,52,0.00,CLR,,0.00,WeatherDisplay:10.37,2013-04-13 04:30:00,
2013-04-13 00:35:00,65.7,46.0,29.75,West,281,4.6,4.6,49,0.00,CLR,,0.00,WeatherDisplay:10.37,2013-04-13 04:35:00,
2013-04-13 00:40:00,65.8,45.6,29.76,NW,308,2.3,2.3,48,0.00,CLR,,0.00,WeatherDisplay:10.37,2013-04-13 04:40:00,
2013-04-13 00:45:00,65.9,45.6,29.76,WNW,288,2.3,2.5,48,0.00,CLR,,0.00,WeatherDisplay:10.37,2013-04-13 04:45:00,
2013-04-13 00:50:00,65.8,45.0,29.76,West,264,3.5,3.5,47,0.00,CLR,,0.00,WeatherDisplay:10.37,2013-04-13 04:50:00,
2013-04-13 00:55:00,65.6,44.8,29.76,SW,233,2.3,2.3,47,0.00,CLR,,0.00,WeatherDisplay:10.37,2013-04-13 04:55:00,
2013-04-13 01:00:00,65.4,45.2,29.77,West,259,1.1,1.1,48,0.00,CLR,,0.00,WeatherDisplay:10.37,2013-04-13 05:00:00,
2013-04-13 01:05:00,65.0,44.8,29.77,WSW,255,0.0,0.0,48,0.00,CLR,,0.00,WeatherDisplay:10.37,2013-04-13 05:05:00,
2013-04-13 01:10:00,64.6,45.0,29.77,WSW,242,0.0,0.0,49,0.00,CLR,,0.00,WeatherDisplay:10.37,2013-04-13 05:10:00,
2013-04-13 01:15:00,64.2,44.6,29.78,SW,236,0.0,0.0,49,0.00,CLR,,0.00,WeatherDisplay:10.37,2013-04-13 05:15:00,
2013-04-13 01:20:00,63.8,44.8,29.78,WSW,238,0.0,0.0,50,0.00,CLR,,0.00,WeatherDisplay:10.37,2013-04-13 05:20:00,
2013-04-13 01:25:00,63.3,45.4,29.78,West,269,0.0,0.0,52,0.00,CLR,,0.00,WeatherDisplay:10.37,2013-04-13 05:25:00,
2013-04-13 01:30:00,63.0,45.1,29.78,WSW,240,1.1,0.0,52,0.00,CLR,,0.00,WeatherDisplay:10.37,2013-04-13 05:30:00,
2013-04-13 01:35:00,62.9,45.0,29.79,WSW,256,1.1,1.1,52,0.00,CLR,,0.00,WeatherDisplay:10.37,2013-04-13 05:35:00,
2013-04-13 01:41:00,62.8,45.4,29.79,WNW,289,1.1,0.0,53,0.00,CLR,,0.00,WeatherDisplay:10.37,2013-04-13 05:41:00,
2013-04-13 01:46:00,62.5,45.6,29.79,WNW,290,0.0,0.0,54,0.00,CLR,,0.00,WeatherDisplay:10.37,2013-04-13 05:46:00,
2013-04-13 01:51:00,62.2,45.3,29.78,WSW,252,1.1,1.1,54,0.00,CLR,,0.00,WeatherDisplay:10.37,2013-04-13 05:51:00,
2013-04-13 01:56:00,62.0,45.2,29.78,West,260,0.0,0.0,54,0.00,CLR,,0.00,WeatherDisplay:10.37,2013-04-13 05:56:00,
2013-04-13 02:01:00,61.7,44.9,29.79,WNW,282,0.0,0.0,54,0.00,CLR,,0.00,WeatherDisplay:10.37,2013-04-13 06:01:00,
2013-04-13 02:06:00,61.6,44.8,29.79,WSW,252,0.0,0.0,54,0.00,CLR,,0.00,WeatherDisplay:10.37,2013-04-13 06:06:00,
2013-04-13 02:11:00,61.6,44.8,29.79,West,276,2.3,2.3,54,0.00,CLR,,0.00,WeatherDisplay:10.37,2013-04-13 06:11:00,
2013-04-13 02:16:00,61.6,44.8,29.79,ESE,105,1.1,1.1,54,0.00,CLR,,0.00,WeatherDisplay:10.37,2013-04-13 06:16:00,
2013-04-13 02:21:00,61.6,44.8,29.79,WSW,245,2.3,2.3,54,0.00,CLR,,0.00,WeatherDisplay:10.37,2013-04-13 06:21:00,
2013-04-13 02:27:00,61.7,44.9,29.80,WSW,252,3.5,3.5,54,0.00,CLR,,0.00,WeatherDisplay:10.37,2013-04-13 06:27:00,
2013-04-13 02:32:00,61.5,44.7,29.80,West,276,0.0,0.0,54,0.00,CLR,,0.00,WeatherDisplay:10.37,2013-04-13 06:32:00,
2013-04-13 02:37:00,61.3,45.0,29.80,West,269,0.0,0.0,55,0.00,CLR,,0.00,WeatherDisplay:10.37,2013-04-13 06:37:00,
2013-04-13 02:42:00,61.1,45.3,29.80,WSW,238,0.0,0.0,56,0.00,CLR,,0.00,WeatherDisplay:10.37,2013-04-13 06:42:00,
2013-04-13 02:48:00,60.7,44.4,29.80,SE,129,0.0,0.0,55,0.00,CLR,,0.00,WeatherDisplay:10.37,2013-04-13 06:48:00,
2013-04-13 02:53:00,60.7,44.4,29.80,SSW,211,2.0,2.0,55,0.00,CLR,,0.00,WeatherDisplay:10.37,2013-04-13 06:53:00,
2013-04-13 02:59:00,60.4,44.6,29.80,ESE,105,2.3,2.3,56,0.00,CLR,,0.00,WeatherDisplay:10.37,2013-04-13 06:59:00,
2013-04-13 03:05:00,60.4,44.2,29.80,SSE,148,5.0,5.0,55,0.00,CLR,,0.00,WeatherDisplay:10.37,2013-04-13 07:05:00,
2013-04-13 03:10:00,60.4,44.2,29.81,SSW,193,0.0,0.1,55,0.00,CLR,,0.00,WeatherDisplay:10.37,2013-04-13 07:10:00,
2013-04-13 03:15:00,60.2,44.4,29.81,South,178,0.0,0.0,56,0.00,CLR,,0.00,WeatherDisplay:10.37,2013-04-13 07:15:00,
2013-04-13 03:20:00,59.9,44.2,29.81,SW,224,1.1,1.1,56,0.00,CLR,,0.00,WeatherDisplay:10.37,2013-04-13 07:20:00,
2013-04-13 03:25:00,59.7,44.0,29.81,SW,219,0.0,0.0,56,0.00,CLR,,0.00,WeatherDisplay:10.37,2013-04-13 07:25:00,
2013-04-13 03:30:00,59.4,44.2,29.81,NNW,329,3.0,3.0,57,0.00,CLR,,0.00,WeatherDisplay:10.37,2013-04-13 07:30:00,
2013-04-13 03:35:00,59.1,44.3,29.81,NW,311,0.0,0.0,58,0.00,CLR,,0.00,WeatherDisplay:10.37,2013-04-13 07:35:00,
2013-04-13 03:40:00,58.8,44.5,29.81,WSW,243,1.1,0.0,59,0.00,CLR,,0.00,WeatherDisplay:10.37,2013-04-13 07:40:00,
2013-04-13 03:46:00,58.5,44.2,29.82,West,259,1.1,0.0,59,0.00,CLR,,0.00,WeatherDisplay:10.37,2013-04-13 07:46:00,
2013-04-13 03:51:00,58.2,43.9,29.82,NNE,32,0.0,0.0,59,0.00,CLR,,0.00,WeatherDisplay:10.37,2013-04-13 07:51:00,
2013-04-13 03:56:00,58.0,44.2,29.82,WSW,239,1.1,1.1,60,0.00,CLR,,0.00,WeatherDisplay:10.37,2013-04-13 07:56:00,
2013-04-13 04:01:00,57.9,44.5,29.82,NNE,21,1.1,0.0,61,0.00,CLR,,0.00,WeatherDisplay:10.37,2013-04-13 08:01:00,
2013-04-13 04:06:00,57.7,44.3,29.83,WSW,240,0.0,0.0,61,0.00,CLR,,0.00,WeatherDisplay:10.37,2013-04-13 08:06:00,
2013-04-13 04:11:00,57.4,44.1,29.83,SW,223,0.0,0.0,61,0.00,CLR,,0.00,WeatherDisplay:10.37,2013-04-13 08:11:00,
2013-04-13 04:17:00,57.3,44.0,29.83,NNE,32,2.0,2.0,61,0.00,CLR,,0.00,WeatherDisplay:10.37,2013-04-13 08:17:00,
2013-04-13 04:23:00,57.3,43.5,29.83,South,169,2.3,0.0,60,0.00,CLR,,0.00,WeatherDisplay:10.37,2013-04-13 08:23:00,
2013-04-13 04:28:00,57.3,43.5,29.83,NE,51,1.1,0.0,60,0.00,CLR,,0.00,WeatherDisplay:10.37,2013-04-13 08:28:00,
2013-04-13 04:33:00,57.3,44.0,29.84,NE,47,3.5,3.5,61,0.00,CLR,,0.00,WeatherDisplay:10.37,2013-04-13 08:33:00,
2013-04-13 04:38:00,57.2,43.4,29.84,ESE,111,1.1,1.1,60,0.00,CLR,,0.00,WeatherDisplay:10.37,2013-04-13 08:38:00,
2013-04-13 04:43:00,56.9,43.2,29.84,NNE,29,1.1,1.1,60,0.00,CLR,,0.00,WeatherDisplay:10.37,2013-04-13 08:43:00,
2013-04-13 04:48:00,56.7,43.0,29.84,ESE,120,0.0,0.0,60,0.00,CLR,,0.00,WeatherDisplay:10.37,2013-04-13 08:48:00,
2013-04-13 04:53:00,56.6,42.9,29.84,North,349,0.0,0.0,60,0.00,CLR,,0.00,WeatherDisplay:10.37,2013-04-13 08:53:00,
2013-04-13 04:59:00,56.5,42.8,29.84,SSE,151,5.8,0.0,60,0.00,CLR,,0.00,WeatherDisplay:10.37,2013-04-13 08:59:00,
2013-04-13 05:05:00,56.5,41.9,29.84,SSW,210,1.1,0.0,58,0.00,CLR,,0.00,WeatherDisplay:10.37,2013-04-13 09:05:00,
2013-04-13 05:10:00,56.5,41.4,29.84,NW,325,2.3,2.3,57,0.00,CLR,,0.00,WeatherDisplay:10.37,2013-04-13 09:10:00,
2013-04-13 05:15:00,56.5,41.9,29.84,SE,127,1.0,1.0,58,0.00,CLR,,0.00,WeatherDisplay:10.37,2013-04-13 09:15:00,
2013-04-13 05:20:00,56.5,41.4,29.84,SSW,193,3.5,3.5,57,0.00,CLR,,0.00,WeatherDisplay:10.37,2013-04-13 09:20:00,
2013-04-13 05:25:00,56.5,41.0,29.85,SW,233,2.0,2.0,56,0.00,CLR,,0.00,WeatherDisplay:10.37,2013-04-13 09:25:00,
2013-04-13 05:30:00,56.5,41.0,29.85,South,172,1.1,1.1,56,0.00,CLR,,0.00,WeatherDisplay:10.37,2013-04-13 09:30:00,
2013-04-13 05:35:00,56.3,40.8,29.85,SW,221,3.5,3.5,56,0.00,CLR,,0.00,WeatherDisplay:10.37,2013-04-13 09:35:00,
2013-04-13 05:41:00,56.2,40.7,29.85,North,360,4.0,4.0,56,0.00,CLR,,0.00,WeatherDisplay:10.37,2013-04-13 09:41:00,
2013-04-13 05:47:00,55.9,40.9,29.86,SSE,153,1.1,0.0,57,0.00,CLR,,0.00,WeatherDisplay:10.37,2013-04-13 09:47:00,
2013-04-13 05:53:00,55.6,40.6,29.86,SE,134,2.3,2.3,57,0.00,CLR,,0.00,WeatherDisplay:10.37,2013-04-13 09:53:00,
2013-04-13 05:58:00,55.5,40.0,29.87,SSW,204,0.0,0.0,56,0.00,CLR,,0.00,WeatherDisplay:10.37,2013-04-13 09:58:00,
2013-04-13 06:03:00,55.5,40.0,29.87,ESE,108,0.0,0.0,56,0.00,CLR,,0.00,WeatherDisplay:10.37,2013-04-13 10:03:00,
2013-04-13 06:08:00,55.3,40.3,29.87,WSW,256,1.1,1.1,57,0.00,CLR,,0.00,WeatherDisplay:10.37,2013-04-13 10:08:00,
2013-04-13 06:13:00,55.1,40.1,29.87,South,188,2.3,2.3,57,0.00,CLR,,0.00,WeatherDisplay:10.37,2013-04-13 10:13:00,
2013-04-13 06:18:00,55.0,39.6,29.88,SW,227,1.0,0.0,56,0.00,CLR,,0.00,WeatherDisplay:10.37,2013-04-13 10:18:00,
2013-04-13 06:23:00,54.8,39.8,29.88,SE,126,1.0,1.0,57,0.00,CLR,,0.00,WeatherDisplay:10.37,2013-04-13 10:23:00,
2013-04-13 06:28:00,54.6,39.2,29.88,SE,140,1.1,0.0,56,0.00,CLR,,0.00,WeatherDisplay:10.37,2013-04-13 10:28:00,
2013-04-13 06:34:00,54.3,39.8,29.89,SW,233,1.1,1.1,58,0.00,CLR,,0.00,WeatherDisplay:10.37,2013-04-13 10:34:00,
2013-04-13 06:39:00,54.0,39.5,29.89,WSW,240,1.1,1.1,58,0.00,CLR,,0.00,WeatherDisplay:10.37,2013-04-13 10:39:00,
2013-04-13 06:44:00,53.9,39.5,29.89,NNW,328,3.5,3.5,58,0.00,CLR,,0.00,WeatherDisplay:10.37,2013-04-13 10:44:00,
2013-04-13 06:50:00,53.9,39.0,29.89,NNW,336,3.5,3.5,57,0.00,CLR,,0.00,WeatherDisplay:10.37,2013-04-13 10:50:00,
2013-04-13 06:55:00,53.9,39.5,29.90,West,264,1.1,0.0,58,0.00,CLR,,0.00,WeatherDisplay:10.37,2013-04-13 10:55:00,
2013-04-13 07:00:00,53.9,39.5,29.90,West,271,2.3,2.3,58,0.00,CLR,,0.00,WeatherDisplay:10.37,2013-04-13 11:00:00,
2013-04-13 07:06:00,53.8,39.4,29.91,NNW,336,2.3,2.3,58,0.00,CLR,,0.00,WeatherDisplay:10.37,2013-04-13 11:06:00,
2013-04-13 07:12:00,53.9,39.5,29.91,East,101,1.1,1.1,58,0.00,CLR,,0.00,WeatherDisplay:10.37,2013-04-13 11:12:00,
2013-04-13 07:17:00,54.0,39.5,29.91,ESE,103,0.0,0.0,58,0.00,CLR,,0.00,WeatherDisplay:10.37,2013-04-13 11:17:00,
2013-04-13 07:22:00,54.0,39.5,29.92,ESE,113,1.1,0.0,58,0.00,CLR,,0.00,WeatherDisplay:10.37,2013-04-13 11:22:00,
2013-04-13 07:27:00,54.5,40.0,29.92,East,80,2.3,0.0,58,0.00,CLR,,0.00,WeatherDisplay:10.37,2013-04-13 11:27:00,
2013-04-13 07:32:00,55.0,40.0,29.92,SE,134,2.3,0.0,57,0.00,CLR,,0.00,WeatherDisplay:10.37,2013-04-13 11:32:00,
2013-04-13 07:37:00,56.2,40.2,29.92,ESE,111,2.0,2.0,55,0.00,CLR,,0.00,WeatherDisplay:10.37,2013-04-13 11:37:00,
2013-04-13 07:43:00,57.2,40.7,29.93,NE,44,1.0,0.0,54,0.00,CLR,,0.00,WeatherDisplay:10.37,2013-04-13 11:43:00,
2013-04-13 07:48:00,57.9,41.3,29.93,NE,40,0.0,0.0,54,0.00,CLR,,0.00,WeatherDisplay:10.37,2013-04-13 11:48:00,
2013-04-13 07:53:00,58.8,40.7,29.93,South,169,1.0,1.0,51,0.00,CLR,,0.00,WeatherDisplay:10.37,2013-04-13 11:53:00,
2013-04-13 07:58:00,59.9,41.7,29.93,South,169,0.0,0.0,51,0.00,CLR,,0.00,WeatherDisplay:10.37,2013-04-13 11:58:00,
2013-04-13 08:03:00,60.7,41.4,29.93,NNE,27,2.0,2.0,49,0.00,CLR,,0.00,WeatherDisplay:10.37,2013-04-13 12:03:00,
2013-04-13 08:09:00,60.6,40.8,29.93,NE,47,3.5,3.5,48,0.00,CLR,,0.00,WeatherDisplay:10.37,2013-04-13 12:09:00,
2013-04-13 08:14:00,60.9,41.1,29.94,NE,44,3.0,3.0,48,0.00,CLR,,0.00,WeatherDisplay:10.37,2013-04-13 12:14:00,
2013-04-13 08:19:00,60.6,40.2,29.94,NNE,32,3.5,3.5,47,0.00,CLR,,0.00,WeatherDisplay:10.37,2013-04-13 12:19:00,
2013-04-13 08:24:00,61.0,40.1,29.94,North,352,3.5,3.5,46,0.00,CLR,,0.00,WeatherDisplay:10.37,2013-04-13 12:24:00,
2013-04-13 08:29:00,61.5,41.1,29.94,SW,235,2.0,2.0,47,0.00,CLR,,0.00,WeatherDisplay:10.37,2013-04-13 12:29:00,
2013-04-13 08:34:00,62.0,41.0,29.94,NE,39,2.0,2.0,46,0.00,CLR,,0.00,WeatherDisplay:10.37,2013-04-13 12:34:00,
2013-04-13 08:39:00,62.2,41.2,29.94,East,101,3.5,3.5,46,0.00,CLR,,0.00,WeatherDisplay:10.37,2013-04-13 12:39:00,
2013-04-13 08:44:00,62.5,40.9,29.94,NE,56,4.0,4.0,45,0.00,CLR,,0.00,WeatherDisplay:10.37,2013-04-13 12:44:00,
2013-04-13 08:49:00,62.6,40.4,29.94,ESE,115,2.0,2.0,44,0.00,CLR,,0.00,WeatherDisplay:10.37,2013-04-13 12:49:00,
2013-04-13 08:54:00,62.9,40.6,29.94,WSW,253,4.6,4.6,44,0.00,CLR,,0.00,WeatherDisplay:10.37,2013-04-13 12:54:00,
2013-04-13 09:00:00,63.0,40.1,29.94,North,356,3.5,3.5,43,0.00,CLR,,0.00,WeatherDisplay:10.37,2013-04-13 13:00:00,
2013-04-13 09:05:00,63.0,39.5,29.94,NNW,344,3.5,3.5,42,0.00,CLR,,0.00,WeatherDisplay:10.37,2013-04-13 13:05:00,
2013-04-13 09:10:00,63.4,40.5,29.94,ESE,103,4.0,4.0,43,0.00,CLR,,0.00,WeatherDisplay:10.37,2013-04-13 13:10:00,
2013-04-13 09:15:00,63.4,39.9,29.95,NW,314,3.5,3.5,42,0.00,CLR,,0.00,WeatherDisplay:10.37,2013-04-13 13:15:00,
2013-04-13 09:21:00,63.5,38.7,29.95,North,11,3.0,3.0,40,0.00,CLR,,0.00,WeatherDisplay:10.37,2013-04-13 13:21:00,
2013-04-13 09:27:00,63.7,39.5,29.95,SSE,151,6.0,6.0,41,0.00,CLR,,0.00,WeatherDisplay:10.37,2013-04-13 13:27:00,
2013-04-13 09:32:00,63.7,39.5,29.95,NNE,30,6.9,6.9,41,0.00,CLR,,0.00,WeatherDisplay:10.37,2013-04-13 13:32:00,
2013-04-13 09:37:00,63.7,39.5,29.95,South,184,8.1,8.1,41,0.00,CLR,,0.00,WeatherDisplay:10.37,2013-04-13 13:37:00,
2013-04-13 09:42:00,63.8,39.0,29.95,WNW,303,4.0,4.0,40,0.00,CLR,,0.00,WeatherDisplay:10.37,2013-04-13 13:42:00,
2013-04-13 09:48:00,64.1,39.3,29.95,SW,236,3.5,3.5,40,0.00,CLR,,0.00,WeatherDisplay:10.37,2013-04-13 13:48:00,
2013-04-13 09:53:00,64.5,39.0,29.95,NE,39,6.9,6.9,39,0.00,CLR,,0.00,WeatherDisplay:10.37,2013-04-13 13:53:00,
2013-04-13 09:58:00,64.7,39.8,29.95,WSW,250,5.8,5.8,40,0.00,CLR,,0.00,WeatherDisplay:10.37,2013-04-13 13:58:00,
2013-04-13 10:03:00,65.2,40.9,29.95,East,100,1.1,1.1,41,0.00,CLR,,0.00,WeatherDisplay:10.37,2013-04-13 14:03:00,
2013-04-13 10:09:00,65.7,38.7,29.95,ENE,66,4.0,4.0,37,0.00,CLR,,0.00,WeatherDisplay:10.37,2013-04-13 14:09:00,
2013-04-13 10:14:00,65.5,39.2,29.95,North,360,5.8,5.8,38,0.00,CLR,,0.00,WeatherDisplay:10.37,2013-04-13 14:14:00,
2013-04-13 10:19:00,65.6,40.0,29.95,SW,214,3.5,3.5,39,0.00,CLR,,0.00,WeatherDisplay:10.37,2013-04-13 14:19:00,
2013-04-13 10:24:00,65.9,40.9,29.95,South,169,4.0,4.0,40,0.00,CLR,,0.00,WeatherDisplay:10.37,2013-04-13 14:24:00,
2013-04-13 10:29:00,66.6,40.2,29.95,NNE,15,3.0,3.0,38,0.00,CLR,,0.00,WeatherDisplay:10.37,2013-04-13 14:29:00,
2013-04-13 10:34:00,66.7,40.3,29.96,WNW,300,2.3,2.3,38,0.00,CLR,,0.00,WeatherDisplay:10.37,2013-04-13 14:34:00,
2013-04-13 10:40:00,66.7,39.6,29.95,SE,125,2.3,2.3,37,0.00,CLR,,0.00,WeatherDisplay:10.37,2013-04-13 14:40:00,
2013-04-13 10:45:00,66.9,39.8,29.96,NNW,334,3.5,3.5,37,0.00,CLR,,0.00,WeatherDisplay:10.37,2013-04-13 14:45:00,
2013-04-13 10:50:00,67.0,40.5,29.95,WNW,290,1.1,0.0,38,0.00,CLR,,0.00,WeatherDisplay:10.37,2013-04-13 14:50:00,
2013-04-13 10:55:00,67.5,39.6,29.96,WSW,258,5.0,5.0,36,0.00,CLR,,0.00,WeatherDisplay:10.37,2013-04-13 14:55:00,
2013-04-13 11:00:00,67.5,40.3,29.96,WNW,302,3.5,3.5,37,0.00,CLR,,0.00,WeatherDisplay:10.37,2013-04-13 15:00:00,
2013-04-13 11:05:00,67.5,41.0,29.96,NNW,328,2.3,2.3,38,0.00,CLR,,0.00,WeatherDisplay:10.37,2013-04-13 15:05:00,
2013-04-13 11:11:00,67.7,40.5,29.95,West,273,2.3,2.3,37,0.00,CLR,,0.00,WeatherDisplay:10.37,2013-04-13 15:11:00,
2013-04-13 11:16:00,67.9,39.9,29.96,ENE,72,2.3,2.3,36,0.00,CLR,,0.00,WeatherDisplay:10.37,2013-04-13 15:16:00,
2013-04-13 11:21:00,67.4,39.5,29.95,SE,133,3.5,3.5,36,0.00,CLR,,0.00,WeatherDisplay:10.37,2013-04-13 15:21:00,
2013-04-13 11:26:00,67.6,41.1,29.95,ESE,108,0.0,0.3,38,0.00,CLR,,0.00,WeatherDisplay:10.37,2013-04-13 15:26:00,
2013-04-13 11:31:00,68.3,41.0,29.95,NNE,22,3.5,3.5,37,0.00,CLR,,0.00,WeatherDisplay:10.37,2013-04-13 15:31:00,
2013-04-13 11:36:00,68.6,39.8,29.95,SSE,165,1.1,1.1,35,0.00,CLR,,0.00,WeatherDisplay:10.37,2013-04-13 15:36:00,
2013-04-13 11:41:00,68.8,40.7,29.95,WSW,255,2.3,2.3,36,0.00,CLR,,0.00,WeatherDisplay:10.37,2013-04-13 15:41:00,
2013-04-13 11:46:00,69.0,40.2,29.95,NW,322,1.1,0.0,35,0.00,CLR,,0.00,WeatherDisplay:10.37,2013-04-13 15:46:00,
2013-04-13 11:51:00,69.0,40.9,29.95,NE,51,4.6,4.6,36,0.00,CLR,,0.00,WeatherDisplay:10.37,2013-04-13 15:51:00,
2013-04-13 11:57:00,68.8,40.0,29.95,SW,215,1.1,1.1,35,0.00,CLR,,0.00,WeatherDisplay:10.37,2013-04-13 15:57:00,
2013-04-13 12:03:00,69.3,41.2,29.95,SSW,197,3.5,3.5,36,0.00,CLR,,0.00,WeatherDisplay:10.37,2013-04-13 16:03:00,
2013-04-13 12:08:00,70.1,42.6,29.94,SW,226,0.0,0.0,37,0.00,CLR,,0.00,WeatherDisplay:10.37,2013-04-13 16:08:00,
2013-04-13 12:13:00,70.0,40.3,29.95,WSW,238,3.5,3.5,34,0.00,CLR,,0.00,WeatherDisplay:10.37,2013-04-13 16:13:00,
2013-04-13 12:18:00,70.4,43.6,29.95,WNW,285,2.3,2.3,38,0.00,CLR,,0.00,WeatherDisplay:10.37,2013-04-13 16:18:00,
2013-04-13 12:23:00,70.4,39.9,29.94,SE,136,3.5,3.5,33,0.00,CLR,,0.00,WeatherDisplay:10.37,2013-04-13 16:23:00,
2013-04-13 12:28:00,71.2,41.4,29.94,East,79,3.5,3.5,34,0.00,CLR,,0.00,WeatherDisplay:10.37,2013-04-13 16:28:00,
2013-04-13 12:33:00,71.6,41.0,29.94,WNW,288,1.1,1.1,33,0.00,CLR,,0.00,WeatherDisplay:10.37,2013-04-13 16:33:00,
2013-04-13 12:38:00,71.7,41.0,29.94,NNW,335,3.5,3.5,33,0.00,CLR,,0.00,WeatherDisplay:10.37,2013-04-13 16:38:00,
2013-04-13 12:43:00,71.2,40.6,29.94,WSW,237,3.5,3.5,33,0.00,CLR,,0.00,WeatherDisplay:10.37,2013-04-13 16:43:00,
2013-04-13 12:48:00,71.4,41.6,29.94,North,349,3.5,3.5,34,0.00,CLR,,0.00,WeatherDisplay:10.37,2013-04-13 16:48:00,
2013-04-13 12:53:00,71.2,41.4,29.93,North,353,2.3,2.3,34,0.00,CLR,,0.00,WeatherDisplay:10.37,2013-04-13 16:53:00,
2013-04-13 12:58:00,71.3,40.7,29.93,NNE,12,3.5,3.5,33,0.00,CLR,,0.00,WeatherDisplay:10.37,2013-04-13 16:58:00,
2013-04-13 13:04:00,71.4,43.0,29.93,North,6,4.6,4.6,36,0.00,CLR,,0.00,WeatherDisplay:10.37,2013-04-13 17:04:00,
2013-04-13 13:09:00,71.7,41.8,29.93,North,11,2.3,2.3,34,0.00,CLR,,0.00,WeatherDisplay:10.37,2013-04-13 17:09:00,
2013-04-13 13:14:00,72.2,41.5,29.93,SW,219,3.5,3.5,33,0.00,CLR,,0.00,WeatherDisplay:10.37,2013-04-13 17:14:00,
2013-04-13 13:19:00,72.3,43.8,29.93,WSW,237,2.3,2.3,36,0.00,CLR,,0.00,WeatherDisplay:10.37,2013-04-13 17:19:00,
2013-04-13 13:24:00,72.7,41.1,29.93,SW,215,3.0,3.0,32,0.00,CLR,,0.00,WeatherDisplay:10.37,2013-04-13 17:24:00,
2013-04-13 13:29:00,72.6,41.0,29.93,WSW,238,6.0,6.0,32,0.00,CLR,,0.00,WeatherDisplay:10.37,2013-04-13 17:29:00,
2013-04-13 13:34:00,72.6,41.0,29.93,NW,322,6.9,6.9,32,0.00,CLR,,0.00,WeatherDisplay:10.37,2013-04-13 17:34:00,
2013-04-13 13:39:00,73.1,44.5,29.93,WNW,293,3.5,3.5,36,0.00,CLR,,0.00,WeatherDisplay:10.37,2013-04-13 17:39:00,
2013-04-13 13:45:00,73.8,43.7,29.93,WSW,256,4.0,4.0,34,0.00,CLR,,0.00,WeatherDisplay:10.37,2013-04-13 17:45:00,
2013-04-13 13:52:00,74.0,43.8,29.93,SW,229,3.5,3.5,34,0.00,CLR,,0.00,WeatherDisplay:10.37,2013-04-13 17:52:00,
2013-04-13 13:58:00,73.9,43.8,29.93,West,273,1.1,0.0,34,0.00,CLR,,0.00,WeatherDisplay:10.37,2013-04-13 17:58:00,
2013-04-13 14:03:00,74.3,41.7,29.93,West,280,3.5,3.5,31,0.00,CLR,,0.00,WeatherDisplay:10.37,2013-04-13 18:03:00,
2013-04-13 14:08:00,74.4,41.8,29.93,SSW,196,3.5,3.5,31,0.00,CLR,,0.00,WeatherDisplay:10.37,2013-04-13 18:08:00,
2013-04-13 14:13:00,74.9,43.0,29.93,WSW,252,4.0,4.0,32,0.00,CLR,,0.00,WeatherDisplay:10.37,2013-04-13 18:13:00,
2013-04-13 14:18:00,75.0,42.3,29.92,West,260,3.5,3.5,31,0.00,CLR,,0.00,WeatherDisplay:10.37,2013-04-13 18:18:00,
2013-04-13 14:23:00,75.0,42.3,29.92,SW,224,3.5,3.5,31,0.00,CLR,,0.00,WeatherDisplay:10.37,2013-04-13 18:23:00,
2013-04-13 14:27:00,75.2,41.6,29.92,WSW,251,3.5,3.5,30,0.00,CLR,,0.00,WeatherDisplay:10.37,2013-04-13 18:27:00,
2013-04-13 14:32:00,75.3,41.7,29.92,NW,314,3.5,3.5,30,0.00,CLR,,0.00,WeatherDisplay:10.37,2013-04-13 18:32:00,
2013-04-13 14:37:00,75.3,42.6,29.92,NE,34,3.0,3.0,31,0.00,CLR,,0.00,WeatherDisplay:10.37,2013-04-13 18:37:00,
2013-04-13 14:42:00,75.4,42.7,29.92,WSW,238,3.0,3.0,31,0.00,CLR,,0.00,WeatherDisplay:10.37,2013-04-13 18:42:00,
2013-04-13 14:47:00,75.3,41.7,29.91,WSW,250,3.5,3.5,30,0.00,CLR,,0.00,WeatherDisplay:10.37,2013-04-13 18:47:00,
2013-04-13 14:52:00,75.3,41.7,29.91,SW,229,5.0,5.0,30,0.00,CLR,,0.00,WeatherDisplay:10.37,2013-04-13 18:52:00,
2013-04-13 14:58:00,75.3,42.6,29.91,WNW,283,3.5,3.5,31,0.00,CLR,,0.00,WeatherDisplay:10.37,2013-04-13 18:58:00,
2013-04-13 15:03:00,75.7,42.1,29.91,NNW,340,2.3,2.3,30,0.00,CLR,,0.00,WeatherDisplay:10.37,2013-04-13 19:03:00,
2013-04-13 15:08:00,76.0,41.4,29.91,South,176,3.5,3.5,29,0.00,CLR,,0.00,WeatherDisplay:10.37,2013-04-13 19:08:00,
2013-04-13 15:13:00,75.8,41.3,29.91,NW,324,5.8,5.8,29,0.00,CLR,,0.00,WeatherDisplay:10.37,2013-04-13 19:13:00,
2013-04-13 15:18:00,76.0,42.3,29.91,SW,221,3.5,3.5,30,0.00,CLR,,0.00,WeatherDisplay:10.37,2013-04-13 19:18:00,
2013-04-13 15:23:00,76.5,41.9,29.90,NW,316,4.6,4.6,29,0.00,CLR,,0.00,WeatherDisplay:10.37,2013-04-13 19:23:00,
2013-04-13 15:28:00,76.3,40.8,29.90,North,5,5.8,5.8,28,0.00,CLR,,0.00,WeatherDisplay:10.37,2013-04-13 19:28:00,
2013-04-13 15:33:00,76.1,40.6,29.90,WSW,243,4.6,4.6,28,0.00,CLR,,0.00,WeatherDisplay:10.37,2013-04-13 19:33:00,
2013-04-13 15:38:00,76.4,39.9,29.90,WSW,257,3.5,3.5,27,0.00,CLR,,0.00,WeatherDisplay:10.37,2013-04-13 19:38:00,
2013-04-13 15:43:00,77.2,42.5,29.90,SSW,212,2.0,2.0,29,0.00,CLR,,0.00,WeatherDisplay:10.37,2013-04-13 19:43:00,
2013-04-13 15:48:00,77.4,40.8,29.90,WNW,300,3.5,3.5,27,0.00,CLR,,0.00,WeatherDisplay:10.37,2013-04-13 19:48:00,
2013-04-13 15:53:00,77.1,40.5,29.89,NNW,344,3.5,3.5,27,0.00,CLR,,0.00,WeatherDisplay:10.37,2013-04-13 19:53:00,
2013-04-13 15:58:00,77.3,41.6,29.89,SW,225,2.0,2.0,28,0.00,CLR,,0.00,WeatherDisplay:10.37,2013-04-13 19:58:00,
2013-04-13 16:03:00,77.8,42.1,29.89,WSW,248,2.3,2.3,28,0.00,CLR,,0.00,WeatherDisplay:10.37,2013-04-13 20:03:00,
2013-04-13 16:08:00,77.5,41.8,29.89,NW,311,3.0,3.0,28,0.00,CLR,,0.00,WeatherDisplay:10.37,2013-04-13 20:08:00,
2013-04-13 16:13:00,77.2,41.6,29.88,WSW,250,1.1,1.1,28,0.00,CLR,,0.00,WeatherDisplay:10.37,2013-04-13 20:13:00,
2013-04-13 16:18:00,77.8,42.1,29.88,SSW,203,3.5,3.5,28,0.00,CLR,,0.00,WeatherDisplay:10.37,2013-04-13 20:18:00,
2013-04-13 16:23:00,77.8,43.0,29.88,SSE,155,2.3,2.3,29,0.00,CLR,,0.00,WeatherDisplay:10.37,2013-04-13 20:23:00,
2013-04-13 16:28:00,77.8,41.1,29.88,South,191,3.5,3.5,27,0.00,CLR,,0.00,WeatherDisplay:10.37,2013-04-13 20:28:00,
2013-04-13 16:33:00,77.6,39.0,29.88,West,262,3.5,3.5,25,0.00,CLR,,0.00,WeatherDisplay:10.37,2013-04-13 20:33:00,
2013-04-13 16:38:00,78.2,40.5,29.88,WSW,253,4.0,4.0,26,0.00,CLR,,0.00,WeatherDisplay:10.37,2013-04-13 20:38:00,
2013-04-13 16:43:00,77.7,42.0,29.88,SW,233,2.3,2.3,28,0.00,CLR,,0.00,WeatherDisplay:10.37,2013-04-13 20:43:00,
2013-04-13 16:48:00,77.8,42.1,29.88,WNW,293,1.1,1.1,28,0.00,CLR,,0.00,WeatherDisplay:10.37,2013-04-13 20:48:00,
2013-04-13 16:53:00,77.7,41.0,29.89,SW,236,3.5,3.5,27,0.00,CLR,,0.00,WeatherDisplay:10.37,2013-04-13 20:53:00,
2013-04-13 16:58:00,77.5,41.8,29.88,SSW,207,4.6,4.6,28,0.00,CLR,,0.00,WeatherDisplay:10.37,2013-04-13 20:58:00,
2013-04-13 17:03:00,77.4,41.7,29.88,North,351,3.5,3.5,28,0.00,CLR,,0.00,WeatherDisplay:10.37,2013-04-13 21:03:00,
2013-04-13 17:08:00,77.5,41.8,29.88,West,269,3.5,3.5,28,0.00,CLR,,0.00,WeatherDisplay:10.37,2013-04-13 21:08:00,
2013-04-13 17:13:00,77.4,41.7,29.88,WSW,238,2.3,2.3,28,0.00,CLR,,0.00,WeatherDisplay:10.37,2013-04-13 21:13:00,
2013-04-13 17:18:00,77.7,42.0,29.88,ENE,67,2.3,2.3,28,0.00,CLR,,0.00,WeatherDisplay:10.37,2013-04-13 21:18:00,
2013-04-13 17:23:00,78.2,42.4,29.88,SW,221,1.1,1.1,28,0.00,CLR,,0.00,WeatherDisplay:10.37,2013-04-13 21:23:00,
2013-04-13 17:28:00,78.3,41.6,29.88,WSW,249,3.5,3.5,27,0.00,CLR,,0.00,WeatherDisplay:10.37,2013-04-13 21:28:00,
2013-04-13 17:33:00,77.7,41.0,29.88,West,270,3.5,3.5,27,0.00,CLR,,0.00,WeatherDisplay:10.37,2013-04-13 21:33:00,
2013-04-13 17:38:00,77.6,41.0,29.88,WSW,237,2.3,2.3,27,0.00,CLR,,0.00,WeatherDisplay:10.37,2013-04-13 21:38:00,
2013-04-13 17:44:00,78.1,43.2,29.89,WSW,239,3.5,3.5,29,0.00,CLR,,0.00,WeatherDisplay:10.37,2013-04-13 21:44:00,
2013-04-13 17:49:00,78.3,41.6,29.89,WSW,249,1.1,1.1,27,0.00,CLR,,0.00,WeatherDisplay:10.37,2013-04-13 21:49:00,
2013-04-13 17:54:00,78.2,41.5,29.89,WSW,245,2.3,2.3,27,0.00,CLR,,0.00,WeatherDisplay:10.37,2013-04-13 21:54:00,
2013-04-13 17:59:00,78.4,41.6,29.88,WSW,256,5.8,5.8,27,0.00,CLR,,0.00,WeatherDisplay:10.37,2013-04-13 21:59:00,
2013-04-13 18:04:00,78.3,41.6,29.88,SW,234,2.3,2.3,27,0.00,CLR,,0.00,WeatherDisplay:10.37,2013-04-13 22:04:00,
2013-04-13 18:09:00,78.2,41.5,29.88,SW,231,1.1,1.1,27,0.00,CLR,,0.00,WeatherDisplay:10.37,2013-04-13 22:09:00,
2013-04-13 18:14:00,78.3,41.6,29.88,SSW,200,2.3,2.3,27,0.00,CLR,,0.00,WeatherDisplay:10.37,2013-04-13 22:14:00,
2013-04-13 18:19:00,78.1,41.4,29.88,West,273,1.1,1.1,27,0.00,CLR,,0.00,WeatherDisplay:10.37,2013-04-13 22:19:00,
2013-04-13 18:24:00,78.2,42.4,29.89,WSW,243,1.1,1.1,28,0.00,CLR,,0.00,WeatherDisplay:10.37,2013-04-13 22:24:00,
2013-04-13 18:29:00,78.1,41.4,29.89,WNW,300,2.0,2.0,27,0.00,CLR,,0.00,WeatherDisplay:10.37,2013-04-13 22:29:00,
2013-04-13 18:34:00,78.0,41.3,29.88,WSW,239,2.3,2.3,27,0.00,CLR,,0.00,WeatherDisplay:10.37,2013-04-13 22:34:00,
2013-04-13 18:39:00,77.5,40.9,29.88,WSW,240,2.0,2.0,27,0.00,CLR,,0.00,WeatherDisplay:10.37,2013-04-13 22:39:00,
2013-04-13 18:44:00,76.6,41.0,29.89,West,267,1.1,1.1,28,0.00,CLR,,0.00,WeatherDisplay:10.37,2013-04-13 22:44:00,
2013-04-13 18:49:00,75.4,40.9,29.89,WSW,254,0.0,0.0,29,0.00,CLR,,0.00,WeatherDisplay:10.37,2013-04-13 22:49:00,
2013-04-13 18:54:00,74.8,41.3,29.89,SW,217,0.0,0.0,30,0.00,CLR,,0.00,WeatherDisplay:10.37,2013-04-13 22:54:00,
2013-04-13 18:59:00,74.3,41.7,29.89,WSW,244,1.1,1.1,31,0.00,CLR,,0.00,WeatherDisplay:10.37,2013-04-13 22:59:00,
2013-04-13 19:04:00,73.7,42.0,29.89,WSW,242,1.1,0.0,32,0.00,CLR,,0.00,WeatherDisplay:10.37,2013-04-13 23:04:00,
2013-04-13 19:09:00,73.2,41.6,29.89,West,280,1.1,1.1,32,0.00,CLR,,0.00,WeatherDisplay:10.37,2013-04-13 23:09:00,
2013-04-13 19:14:00,72.7,40.3,29.89,West,269,1.1,0.0,31,0.00,CLR,,0.00,WeatherDisplay:10.37,2013-04-13 23:14:00,
2013-04-13 19:19:00,72.2,39.0,29.89,West,274,0.0,0.0,30,0.00,CLR,,0.00,WeatherDisplay:10.37,2013-04-13 23:19:00,
2013-04-13 19:24:00,71.7,39.4,29.89,West,273,0.0,0.0,31,0.00,CLR,,0.00,WeatherDisplay:10.37,2013-04-13 23:24:00,
2013-04-13 19:29:00,71.1,38.9,29.89,West,273,0.0,0.0,31,0.00,CLR,,0.00,WeatherDisplay:10.37,2013-04-13 23:29:00,
2013-04-13 19:34:00,70.6,39.3,29.89,West,273,0.0,0.0,32,0.00,CLR,,0.00,WeatherDisplay:10.37,2013-04-13 23:34:00,
2013-04-13 19:39:00,70.1,39.6,29.90,West,273,0.0,0.0,33,0.00,CLR,,0.00,WeatherDisplay:10.37,2013-04-13 23:39:00,
2013-04-13 19:45:00,69.5,40.6,29.90,West,273,0.0,0.0,35,0.00,CLR,,0.00,WeatherDisplay:10.37,2013-04-13 23:45:00,
2013-04-13 19:50:00,68.8,42.1,29.90,West,273,0.0,0.0,38,0.00,CLR,,0.00,WeatherDisplay:10.37,2013-04-13 23:50:00,
2013-04-13 19:55:00,68.0,42.1,29.90,West,273,0.0,0.0,39,0.00,CLR,,0.00,WeatherDisplay:10.37,2013-04-13 23:55:00,
2013-04-13 20:00:00,67.1,41.3,29.91,West,271,0.0,0.0,39,0.00,CLR,,0.00,WeatherDisplay:10.37,2013-04-14 00:00:00,
2013-04-13 20:05:00,66.4,42.0,29.91,West,271,0.0,0.0,41,0.00,CLR,,0.00,WeatherDisplay:10.37,2013-04-14 00:05:00,
2013-04-13 20:10:00,65.9,42.1,29.91,West,271,0.0,0.0,42,0.00,CLR,,0.00,WeatherDisplay:10.37,2013-04-14 00:10:00,
2013-04-13 20:15:00,65.2,42.1,29.91,West,271,0.0,0.0,43,0.00,CLR,,0.00,WeatherDisplay:10.37,2013-04-14 00:15:00,
2013-04-13 20:20:00,64.5,42.7,29.91,West,271,0.0,0.0,45,0.00,CLR,,0.00,WeatherDisplay:10.37,2013-04-14 00:20:00,
2013-04-13 20:25:00,63.9,43.3,29.91,West,271,0.0,0.0,47,0.00,CLR,,0.00,WeatherDisplay:10.37,2013-04-14 00:25:00,
2013-04-13 20:30:00,63.2,43.2,29.92,West,271,0.0,0.0,48,0.00,CLR,,0.00,WeatherDisplay:10.37,2013-04-14 00:30:00,
2013-04-13 20:35:00,62.5,42.5,29.92,West,271,0.0,0.0,48,0.00,CLR,,0.00,WeatherDisplay:10.37,2013-04-14 00:35:00,
2013-04-13 20:40:00,62.0,43.7,29.92,West,271,0.0,0.0,51,0.00,CLR,,0.00,WeatherDisplay:10.37,2013-04-14 00:40:00,
2013-04-13 20:45:00,61.7,43.9,29.92,West,271,0.0,0.0,52,0.00,CLR,,0.00,WeatherDisplay:10.37,2013-04-14 00:45:00,
2013-04-13 20:50:00,61.3,43.5,29.92,West,271,0.0,0.0,52,0.00,CLR,,0.00,WeatherDisplay:10.37,2013-04-14 00:50:00,
2013-04-13 20:55:00,60.7,43.9,29.93,West,271,0.0,0.0,54,0.00,CLR,,0.00,WeatherDisplay:10.37,2013-04-14 00:55:00,
2013-04-13 21:00:00,60.1,44.8,29.93,West,271,0.0,0.0,57,0.00,CLR,,0.00,WeatherDisplay:10.37,2013-04-14 01:00:00,
2013-04-13 21:05:00,59.9,44.2,29.93,West,271,0.0,0.0,56,0.00,CLR,,0.00,WeatherDisplay:10.37,2013-04-14 01:05:00,
2013-04-13 21:10:00,59.8,44.1,29.93,West,271,0.0,0.0,56,0.00,CLR,,0.00,WeatherDisplay:10.37,2013-04-14 01:10:00,
2013-04-13 21:15:00,59.5,44.2,29.93,West,271,0.0,0.0,57,0.00,CLR,,0.00,WeatherDisplay:10.37,2013-04-14 01:15:00,
2013-04-13 21:20:00,59.1,44.8,29.94,West,271,0.0,0.0,59,0.00,CLR,,0.00,WeatherDisplay:10.37,2013-04-14 01:20:00,
2013-04-13 21:25:00,58.7,44.8,29.94,West,271,0.0,0.0,60,0.00,CLR,,0.00,WeatherDisplay:10.37,2013-04-14 01:25:00,
2013-04-13 21:30:00,58.3,44.9,29.94,West,271,0.0,0.0,61,0.00,CLR,,0.00,WeatherDisplay:10.37,2013-04-14 01:30:00,
2013-04-13 21:35:00,58.1,45.1,29.94,West,271,0.0,0.0,62,0.00,CLR,,0.00,WeatherDisplay:10.37,2013-04-14 01:35:00,
2013-04-13 21:40:00,58.1,45.1,29.95,West,271,0.0,0.0,62,0.00,CLR,,0.00,WeatherDisplay:10.37,2013-04-14 01:40:00,
2013-04-13 21:45:00,58.0,44.6,29.95,West,271,0.0,0.0,61,0.00,CLR,,0.00,WeatherDisplay:10.37,2013-04-14 01:45:00,
2013-04-13 21:50:00,57.9,44.5,29.95,West,271,0.0,0.0,61,0.00,CLR,,0.00,WeatherDisplay:10.37,2013-04-14 01:50:00,
2013-04-13 21:55:00,57.8,44.9,29.95,West,271,0.0,0.0,62,0.00,CLR,,0.00,WeatherDisplay:10.37,2013-04-14 01:55:00,
2013-04-13 22:00:00,57.5,45.4,29.96,West,271,0.0,0.0,64,0.00,CLR,,0.00,WeatherDisplay:10.37,2013-04-14 02:00:00,
2013-04-13 22:05:00,57.2,45.5,29.96,West,271,0.0,0.0,65,0.00,CLR,,0.00,WeatherDisplay:10.37,2013-04-14 02:05:00,
2013-04-13 22:10:00,57.2,45.9,29.96,West,271,0.0,0.0,66,0.00,CLR,,0.00,WeatherDisplay:10.37,2013-04-14 02:10:00,
2013-04-13 22:15:00,56.9,45.7,29.96,West,271,0.0,0.0,66,0.00,CLR,,0.00,WeatherDisplay:10.37,2013-04-14 02:15:00,
2013-04-13 22:20:00,56.6,46.2,29.96,West,271,0.0,0.0,68,0.00,CLR,,0.00,WeatherDisplay:10.37,2013-04-14 02:20:00,
2013-04-13 22:25:00,56.3,47.0,29.97,West,273,0.0,0.0,71,0.00,CLR,,0.00,WeatherDisplay:10.37,2013-04-14 02:25:00,
2013-04-13 22:30:00,56.1,46.4,29.96,West,271,0.0,0.0,70,0.00,CLR,,0.00,WeatherDisplay:10.37,2013-04-14 02:30:00,
2013-04-13 22:35:00,55.9,46.3,29.97,West,271,0.0,0.0,70,0.00,CLR,,0.00,WeatherDisplay:10.37,2013-04-14 02:35:00,
2013-04-13 22:40:00,55.8,46.2,29.97,West,271,0.0,0.0,70,0.00,CLR,,0.00,WeatherDisplay:10.37,2013-04-14 02:40:00,
2013-04-13 22:45:00,55.7,46.1,29.97,West,271,0.0,0.0,70,0.00,CLR,,0.00,WeatherDisplay:10.37,2013-04-14 02:45:00,
2013-04-13 22:50:00,55.5,45.9,29.97,West,271,0.0,0.0,70,0.00,CLR,,0.00,WeatherDisplay:10.37,2013-04-14 02:50:00,
2013-04-13 22:55:00,55.3,46.1,29.98,West,271,0.0,0.0,71,0.00,CLR,,0.00,WeatherDisplay:10.37,2013-04-14 02:55:00,
2013-04-13 23:01:00,55.1,46.6,29.98,West,270,0.0,0.0,73,0.00,CLR,,0.00,WeatherDisplay:10.37,2013-04-14 03:01:00,
2013-04-13 23:06:00,55.2,46.3,29.98,West,269,0.0,0.0,72,0.00,CLR,,0.00,WeatherDisplay:10.37,2013-04-14 03:06:00,
2013-04-13 23:11:00,55.2,46.7,29.98,West,269,0.0,0.0,73,0.00,CLR,,0.00,WeatherDisplay:10.37,2013-04-14 03:11:00,
2013-04-13 23:16:00,55.0,47.2,29.98,SSE,148,0.0,0.0,75,0.00,CLR,,0.00,WeatherDisplay:10.37,2013-04-14 03:16:00,
2013-04-13 23:21:00,54.6,46.8,29.99,South,174,0.0,0.0,75,0.00,CLR,,0.00,WeatherDisplay:10.37,2013-04-14 03:21:00,
2013-04-13 23:26:00,54.3,46.2,29.98,South,175,0.0,0.0,74,0.00,CLR,,0.00,WeatherDisplay:10.37,2013-04-14 03:26:00,
2013-04-13 23:31:00,54.2,46.1,29.98,South,174,0.0,0.0,74,0.00,CLR,,0.00,WeatherDisplay:10.37,2013-04-14 03:31:00,
2013-04-13 23:36:00,54.1,46.0,29.99,South,173,0.0,0.0,74,0.00,CLR,,0.00,WeatherDisplay:10.37,2013-04-14 03:36:00,
2013-04-13 23:41:00,54.1,45.6,29.99,SSE,165,0.0,0.0,73,0.00,CLR,,0.00,WeatherDisplay:10.37,2013-04-14 03:41:00,
2013-04-13 23:46:00,54.3,46.5,29.99,SSE,165,0.0,0.0,75,0.00,CLR,,0.00,WeatherDisplay:10.37,2013-04-14 03:46:00,
2013-04-13 23:52:00,54.5,46.7,29.99,SSW,198,0.0,0.0,75,0.00,CLR,,0.00,WeatherDisplay:10.37,2013-04-14 03:52:00,
2013-04-13 23:57:00,54.8,47.0,30.00,SSW,202,0.0,0.0,75,0.00,CLR,,0.00,WeatherDisplay:10.37,2013-04-14 03:57:00,